Terminal Aerodrome Forecast
Issued by NWS Caribou, ME

Home | Current Version | Previous Version | Text Only | Print | Product List | Glossary On
Versions: 1 2 3 4 5 6 7 8 9 10 11 12
000
FTUS41 KCAR 121100
TAFCAR
TAF
KCAR 121120Z 1212/1312 24003KT P6SM SKC
     FM121500 24010KT P6SM SCT060
     FM130200 18004KT P6SM SCT090 BKN200=

USA.gov is the U.S. government's official web portal to all federal, state and local government web resources and services.